sensor_id;sensor_type;location;lat;lon;timestamp;pressure;altitude;pressure_sealevel;temperature;humidity
65131;BME280;51709;54.912;8.316;2023-02-21T00:03:15;101086.63;;;6.46;86.47
65131;BME280;51709;54.912;8.316;2023-02-21T00:08:54;101084.03;;;6.41;86.40
65131;BME280;51709;54.912;8.316;2023-02-21T00:14:36;101089.16;;;6.32;86.54
65131;BME280;51709;54.912;8.316;2023-02-21T00:20:15;101090.84;;;6.21;86.62
65131;BME280;51709;54.912;8.316;2023-02-21T00:25:55;101095.06;;;6.14;86.78
65131;BME280;51709;54.912;8.316;2023-02-21T00:31:35;101106.97;;;6.09;86.84
65131;BME280;51709;54.912;8.316;2023-02-21T00:37:14;101112.91;;;6.05;87.11
65131;BME280;51709;54.912;8.316;2023-02-21T00:42:54;101124.81;;;6.09;86.90
65131;BME280;51709;54.912;8.316;2023-02-21T00:48:34;101136.69;;;6.17;86.62
65131;BME280;51709;54.912;8.316;2023-02-21T00:54:13;101134.19;;;6.24;86.62
65131;BME280;51709;54.912;8.316;2023-02-21T00:59:52;101132.47;;;6.32;86.51
65131;BME280;51709;54.912;8.316;2023-02-21T01:05:31;101154.59;;;6.39;86.25
65131;BME280;51709;54.912;8.316;2023-02-21T01:11:18;101154.59;;;6.41;86.25
65131;BME280;51709;54.912;8.316;2023-02-21T01:16:58;101157.97;;;6.41;86.13
65131;BME280;51709;54.912;8.316;2023-02-21T01:22:37;101155.44;;;6.41;85.99
65131;BME280;51709;54.912;8.316;2023-02-21T01:28:16;101168.19;;;6.40;85.97
65131;BME280;51709;54.912;8.316;2023-02-21T01:33:55;101166.50;;;6.42;85.81
65131;BME280;51709;54.912;8.316;2023-02-21T01:39:34;101176.69;;;6.37;85.74
65131;BME280;51709;54.912;8.316;2023-02-21T01:51:00;101175.81;;;6.27;85.71
65131;BME280;51709;54.912;8.316;2023-02-21T01:56:41;101174.94;;;6.21;85.74
65131;BME280;51709;54.912;8.316;2023-02-21T02:02:27;101172.38;;;6.11;85.51
65131;BME280;51709;54.912;8.316;2023-02-21T02:08:08;101180.03;;;6.10;85.42
65131;BME280;51709;54.912;8.316;2023-02-21T02:25:28;101180.00;;;6.05;84.96
65131;BME280;51709;54.912;8.316;2023-02-21T02:36:33;101180.84;;;6.07;84.67
65131;BME280;51709;54.912;8.316;2023-02-21T02:42:14;101180.84;;;6.10;84.42
65131;BME280;51709;54.912;8.316;2023-02-21T02:47:37;101178.31;;;6.12;84.43
65131;BME280;51709;54.912;8.316;2023-02-21T02:53:01;101169.81;;;6.10;84.13
65131;BME280;51709;54.912;8.316;2023-02-21T02:58:31;101179.16;;;6.09;83.91
65131;BME280;51709;54.912;8.316;2023-02-21T03:15:28;101192.75;;;6.16;83.38
65131;BME280;51709;54.912;8.316;2023-02-21T03:20:56;101200.41;;;6.16;83.00
65131;BME280;51709;54.912;8.316;2023-02-21T03:26:17;101186.78;;;6.09;83.05
65131;BME280;51709;54.912;8.316;2023-02-21T03:31:54;101184.25;;;6.08;83.18
65131;BME280;51709;54.912;8.316;2023-02-21T03:37:34;101204.63;;;6.06;83.21
65131;BME280;51709;54.912;8.316;2023-02-21T03:42:57;101208.91;;;6.13;82.97
65131;BME280;51709;54.912;8.316;2023-02-21T03:48:19;101209.72;;;6.06;82.95
65131;BME280;51709;54.912;8.316;2023-02-21T03:53:57;101209.72;;;6.03;82.96
65131;BME280;51709;54.912;8.316;2023-02-21T03:59:26;101217.41;;;6.12;82.89
65131;BME280;51709;54.912;8.316;2023-02-21T04:04:48;101224.19;;;6.10;82.83
65131;BME280;51709;54.912;8.316;2023-02-21T04:10:12;101208.06;;;6.10;83.03
65131;BME280;51709;54.912;8.316;2023-02-21T04:15:38;101225.03;;;6.14;82.71
65131;BME280;51709;54.912;8.316;2023-02-21T04:20:59;101224.19;;;6.10;82.89
65131;BME280;51709;54.912;8.316;2023-02-21T04:26:19;101218.22;;;6.08;82.87
65131;BME280;51709;54.912;8.316;2023-02-21T04:31:43;101220.81;;;6.16;82.53
65131;BME280;51709;54.912;8.316;2023-02-21T04:37:08;101230.13;;;6.12;82.68
65131;BME280;51709;54.912;8.316;2023-02-21T04:42:29;101221.66;;;6.15;82.56
65131;BME280;51709;54.912;8.316;2023-02-21T04:47:50;101225.00;;;6.06;82.86
65131;BME280;51709;54.912;8.316;2023-02-21T04:53:11;101224.19;;;6.10;82.65
65131;BME280;51709;54.912;8.316;2023-02-21T04:58:32;101219.94;;;6.11;82.64
65131;BME280;51709;54.912;8.316;2023-02-21T05:04:04;101225.88;;;6.11;82.65
65131;BME280;51709;54.912;8.316;2023-02-21T05:09:25;101228.44;;;6.16;82.58
65131;BME280;51709;54.912;8.316;2023-02-21T05:14:45;101224.19;;;6.13;82.69
65131;BME280;51709;54.912;8.316;2023-02-21T05:20:06;101223.31;;;6.13;82.59
65131;BME280;51709;54.912;8.316;2023-02-21T05:25:31;101225.88;;;6.13;82.76
65131;BME280;51709;54.912;8.316;2023-02-21T05:30:51;101225.88;;;6.13;82.62
65131;BME280;51709;54.912;8.316;2023-02-21T05:36:13;101222.50;;;6.17;82.58
65131;BME280;51709;54.912;8.316;2023-02-21T05:41:33;101224.22;;;6.16;82.73
65131;BME280;51709;54.912;8.316;2023-02-21T05:46:56;101236.09;;;6.16;82.59
65131;BME280;51709;54.912;8.316;2023-02-21T05:52:17;101245.44;;;6.19;82.49
65131;BME280;51709;54.912;8.316;2023-02-21T05:57:38;101236.09;;;6.17;82.67
65131;BME280;51709;54.912;8.316;2023-02-21T06:02:59;101234.41;;;6.20;82.66
65131;BME280;51709;54.912;8.316;2023-02-21T06:08:24;101244.63;;;6.21;82.40
65131;BME280;51709;54.912;8.316;2023-02-21T06:13:52;101242.88;;;6.14;82.63
65131;BME280;51709;54.912;8.316;2023-02-21T06:19:15;101232.69;;;6.14;82.66
65131;BME280;51709;54.912;8.316;2023-02-21T06:24:37;101255.63;;;6.19;82.58
65131;BME280;51709;54.912;8.316;2023-02-21T06:30:03;101245.41;;;6.14;82.71
65131;BME280;51709;54.912;8.316;2023-02-21T06:35:27;101258.19;;;6.19;82.71
65131;BME280;51709;54.912;8.316;2023-02-21T06:40:48;101267.53;;;6.16;82.64
65131;BME280;51709;54.912;8.316;2023-02-21T06:46:08;101270.91;;;6.19;82.62
65131;BME280;51709;54.912;8.316;2023-02-21T06:51:36;101274.34;;;6.19;82.66
65131;BME280;51709;54.912;8.316;2023-02-21T06:56:56;101277.75;;;6.26;82.51
65131;BME280;51709;54.912;8.316;2023-02-21T07:02:24;101293.91;;;6.29;82.38
65131;BME280;51709;54.912;8.316;2023-02-21T07:07:45;101289.66;;;6.28;82.50
65131;BME280;51709;54.912;8.316;2023-02-21T07:13:06;101304.13;;;6.28;82.37
65131;BME280;51709;54.912;8.316;2023-02-21T07:18:26;101307.50;;;6.28;82.50
65131;BME280;51709;54.912;8.316;2023-02-21T07:23:47;101329.63;;;6.34;82.36
65131;BME280;51709;54.912;8.316;2023-02-21T07:29:08;101332.19;;;6.43;82.14
65131;BME280;51709;54.912;8.316;2023-02-21T07:34:28;101348.41;;;6.56;81.78
65131;BME280;51709;54.912;8.316;2023-02-21T07:39:49;101351.00;;;6.70;81.44
65131;BME280;51709;54.912;8.316;2023-02-21T07:45:10;101362.09;;;6.83;81.10
65131;BME280;51709;54.912;8.316;2023-02-21T07:50:31;101369.78;;;6.88;81.21
65131;BME280;51709;54.912;8.316;2023-02-21T07:55:52;101373.16;;;6.84;81.19
65131;BME280;51709;54.912;8.316;2023-02-21T08:01:12;101372.28;;;6.75;81.57
65131;BME280;51709;54.912;8.316;2023-02-21T08:06:34;101385.00;;;6.68;81.62
65131;BME280;51709;54.912;8.316;2023-02-21T08:11:55;101387.53;;;6.65;81.78
65131;BME280;51709;54.912;8.316;2023-02-21T08:17:16;101390.94;;;6.63;81.65
65131;BME280;51709;54.912;8.316;2023-02-21T08:22:36;101385.84;;;6.68;81.55
65131;BME280;51709;54.912;8.316;2023-02-21T08:27:57;101385.00;;;6.69;81.57
65131;BME280;51709;54.912;8.316;2023-02-21T08:33:18;101391.84;;;6.79;81.27
65131;BME280;51709;54.912;8.316;2023-02-21T08:38:38;101403.78;;;6.90;81.03
65131;BME280;51709;54.912;8.316;2023-02-21T08:43:59;101408.94;;;6.96;80.95
65131;BME280;51709;54.912;8.316;2023-02-21T08:49:20;101405.53;;;7.06;80.83
65131;BME280;51709;54.912;8.316;2023-02-21T08:54:40;101403.84;;;7.08;80.94
65131;BME280;51709;54.912;8.316;2023-02-21T09:00:06;101395.34;;;7.13;80.73
65131;BME280;51709;54.912;8.316;2023-02-21T09:05:30;101401.31;;;7.18;80.79
65131;BME280;51709;54.912;8.316;2023-02-21T09:10:51;101400.50;;;7.27;80.56
65131;BME280;51709;54.912;8.316;2023-02-21T09:16:14;101402.19;;;7.38;80.43
65131;BME280;51709;54.912;8.316;2023-02-21T09:21:35;101404.78;;;7.40;80.46
65131;BME280;51709;54.912;8.316;2023-02-21T09:26:57;101397.97;;;7.51;80.29
65131;BME280;51709;54.912;8.316;2023-02-21T09:32:18;101413.28;;;7.70;79.90
65131;BME280;51709;54.912;8.316;2023-02-21T09:37:39;101404.78;;;7.86;79.77
65131;BME280;51709;54.912;8.316;2023-02-21T09:43:02;101418.41;;;7.98;79.57
65131;BME280;51709;54.912;8.316;2023-02-21T09:48:24;101411.59;;;8.01;79.24
65131;BME280;51709;54.912;8.316;2023-02-21T09:53:47;101414.13;;;8.03;79.24
65131;BME280;51709;54.912;8.316;2023-02-21T09:59:10;101429.44;;;8.20;78.99
65131;BME280;51709;54.912;8.316;2023-02-21T10:05:06;101437.97;;;8.25;78.78
65131;BME280;51709;54.912;8.316;2023-02-21T10:10:42;101447.28;;;8.68;77.65
65131;BME280;51709;54.912;8.316;2023-02-21T10:16:20;101443.91;;;8.47;78.28
65131;BME280;51709;54.912;8.316;2023-02-21T10:21:46;101443.91;;;8.47;78.21
65131;BME280;51709;54.912;8.316;2023-02-21T10:27:14;101459.25;;;8.44;78.27
65131;BME280;51709;54.912;8.316;2023-02-21T10:32:37;101460.00;;;8.90;77.52
65131;BME280;51709;54.912;8.316;2023-02-21T10:37:58;101471.91;;;8.94;76.97
65131;BME280;51709;54.912;8.316;2023-02-21T10:43:27;101477.00;;;8.97;77.18
65131;BME280;51709;54.912;8.316;2023-02-21T10:48:53;101482.94;;;9.08;76.89
65131;BME280;51709;54.912;8.316;2023-02-21T10:54:22;101492.03;;;9.64;75.55
65131;BME280;51709;54.912;8.316;2023-02-21T10:59:46;101513.28;;;10.79;72.98
65131;BME280;51709;54.912;8.316;2023-02-21T11:05:16;101504.47;;;12.21;68.02
65131;BME280;51709;54.912;8.316;2023-02-21T11:10:42;101503.06;;;12.97;66.14
65131;BME280;51709;54.912;8.316;2023-02-21T11:16:16;101512.81;;;13.64;64.28
65131;BME280;51709;54.912;8.316;2023-02-21T11:21:37;101499.34;;;15.48;59.68
65131;BME280;51709;54.912;8.316;2023-02-21T11:26:58;101513.47;;;16.94;56.42
65131;BME280;51709;54.912;8.316;2023-02-21T11:32:32;101518.06;;;19.01;52.32
65131;BME280;51709;54.912;8.316;2023-02-21T11:37:59;101520.94;;;18.74;53.29
65131;BME280;51709;54.912;8.316;2023-02-21T11:43:23;101511.91;;;18.43;54.04
65131;BME280;51709;54.912;8.316;2023-02-21T11:49:16;101507.19;;;18.91;53.89
65131;BME280;51709;54.912;8.316;2023-02-21T11:54:39;101522.69;;;17.48;57.33
65131;BME280;51709;54.912;8.316;2023-02-21T12:06:01;101517.91;;;17.15;57.71
65131;BME280;51709;54.912;8.316;2023-02-21T12:17:11;101507.81;;;19.71;51.76
65131;BME280;51709;54.912;8.316;2023-02-21T12:22:53;101514.66;;;20.09;50.58
65131;BME280;51709;54.912;8.316;2023-02-21T12:39:50;101523.81;;;23.40;42.73
65131;BME280;51709;54.912;8.316;2023-02-21T12:51:17;101520.19;;;23.28;43.18
65131;BME280;51709;54.912;8.316;2023-02-21T12:56:51;101515.56;;;24.12;40.14
65131;BME280;51709;54.912;8.316;2023-02-21T13:02:37;101507.56;;;23.88;41.01
65131;BME280;51709;54.912;8.316;2023-02-21T13:13:34;101514.75;;;24.38;40.09
65131;BME280;51709;54.912;8.316;2023-02-21T13:19:00;101521.38;;;24.93;38.79
65131;BME280;51709;54.912;8.316;2023-02-21T13:35:41;101514.91;;;23.43;40.66
65131;BME280;51709;54.912;8.316;2023-02-21T13:51:50;101497.53;;;16.80;52.33
65131;BME280;51709;54.912;8.316;2023-02-21T13:57:29;101507.66;;;14.70;56.65
65131;BME280;51709;54.912;8.316;2023-02-21T14:03:00;101495.69;;;13.22;60.85
65131;BME280;51709;54.912;8.316;2023-02-21T14:08:27;101495.72;;;12.33;63.03
65131;BME280;51709;54.912;8.316;2023-02-21T14:13:52;101499.38;;;11.63;64.79
65131;BME280;51709;54.912;8.316;2023-02-21T14:25:22;101495.34;;;10.76;65.42
65131;BME280;51709;54.912;8.316;2023-02-21T14:30:48;101507.00;;;10.21;66.52
65131;BME280;51709;54.912;8.316;2023-02-21T14:36:09;101495.22;;;9.97;67.00
65131;BME280;51709;54.912;8.316;2023-02-21T14:42:02;101497.09;;;9.73;66.89
65131;BME280;51709;54.912;8.316;2023-02-21T14:53:30;101495.44;;;9.63;67.34
65131;BME280;51709;54.912;8.316;2023-02-21T14:59:24;101495.63;;;9.39;67.68
65131;BME280;51709;54.912;8.316;2023-02-21T15:05:15;101487.91;;;9.41;68.02
65131;BME280;51709;54.912;8.316;2023-02-21T15:10:43;101483.34;;;9.85;66.97
65131;BME280;51709;54.912;8.316;2023-02-21T15:16:11;101481.69;;;9.78;66.94
65131;BME280;51709;54.912;8.316;2023-02-21T15:21:32;101488.56;;;9.73;67.47
65131;BME280;51709;54.912;8.316;2023-02-21T15:27:10;101484.13;;;9.93;67.17
65131;BME280;51709;54.912;8.316;2023-02-21T15:32:34;101495.22;;;9.94;67.13
65131;BME280;51709;54.912;8.316;2023-02-21T15:37:56;101493.47;;;10.05;67.01
65131;BME280;51709;54.912;8.316;2023-02-21T15:43:26;101497.75;;;10.00;67.26
65131;BME280;51709;54.912;8.316;2023-02-21T15:48:48;101495.31;;;9.83;67.85
65131;BME280;51709;54.912;8.316;2023-02-21T15:59:39;101512.78;;;9.20;68.92
65131;BME280;51709;54.912;8.316;2023-02-21T16:05:00;101518.78;;;9.08;69.20
65131;BME280;51709;54.912;8.316;2023-02-21T16:10:22;101504.31;;;9.00;69.44
65131;BME280;51709;54.912;8.316;2023-02-21T16:15:43;101504.38;;;8.84;69.68
65131;BME280;51709;54.912;8.316;2023-02-21T16:21:06;101508.69;;;8.65;69.98
65131;BME280;51709;54.912;8.316;2023-02-21T16:26:26;101502.72;;;8.58;70.22
65131;BME280;51709;54.912;8.316;2023-02-21T16:31:48;101504.41;;;8.61;70.22
65131;BME280;51709;54.912;8.316;2023-02-21T16:37:12;101501.84;;;8.69;69.76
65131;BME280;51709;54.912;8.316;2023-02-21T16:42:33;101501.00;;;8.68;69.59
65131;BME280;51709;54.912;8.316;2023-02-21T16:48:00;101507.00;;;8.58;69.73
65131;BME280;51709;54.912;8.316;2023-02-21T16:53:21;101517.22;;;8.44;70.12
65131;BME280;51709;54.912;8.316;2023-02-21T16:58:46;101511.25;;;8.37;70.48
65131;BME280;51709;54.912;8.316;2023-02-21T17:04:20;101529.13;;;8.42;70.56
65131;BME280;51709;54.912;8.316;2023-02-21T17:09:42;101539.41;;;8.48;70.51
65131;BME280;51709;54.912;8.316;2023-02-21T17:15:03;101530.88;;;8.47;70.18
65131;BME280;51709;54.912;8.316;2023-02-21T17:20:23;101536.88;;;8.51;70.20
65131;BME280;51709;54.912;8.316;2023-02-21T17:25:45;101532.56;;;8.53;70.40
65131;BME280;51709;54.912;8.316;2023-02-21T17:31:06;101532.59;;;8.52;70.30
65131;BME280;51709;54.912;8.316;2023-02-21T17:36:28;101536.00;;;8.47;70.30
65131;BME280;51709;54.912;8.316;2023-02-21T17:41:50;101537.69;;;8.41;70.51
65131;BME280;51709;54.912;8.316;2023-02-21T17:47:13;101547.03;;;8.42;70.75
65131;BME280;51709;54.912;8.316;2023-02-21T17:52:34;101538.53;;;8.40;70.81
65131;BME280;51709;54.912;8.316;2023-02-21T17:57:57;101552.19;;;8.40;70.87
65131;BME280;51709;54.912;8.316;2023-02-21T18:03:18;101549.63;;;8.43;70.97
65131;BME280;51709;54.912;8.316;2023-02-21T18:08:42;101550.47;;;8.47;71.28
65131;BME280;51709;54.912;8.316;2023-02-21T18:14:07;101561.53;;;8.35;71.09
65131;BME280;51709;54.912;8.316;2023-02-21T18:19:27;101554.72;;;8.15;71.71
65131;BME280;51709;54.912;8.316;2023-02-21T18:24:49;101553.88;;;8.12;72.00
65131;BME280;51709;54.912;8.316;2023-02-21T18:30:10;101557.28;;;8.11;72.03
65131;BME280;51709;54.912;8.316;2023-02-21T18:35:31;101564.09;;;8.06;72.18
65131;BME280;51709;54.912;8.316;2023-02-21T18:40:52;101548.75;;;8.09;72.09
65131;BME280;51709;54.912;8.316;2023-02-21T18:46:17;101548.78;;;8.15;71.92
65131;BME280;51709;54.912;8.316;2023-02-21T18:51:38;101554.75;;;8.18;71.75
65131;BME280;51709;54.912;8.316;2023-02-21T18:56:58;101560.72;;;8.11;72.14
65131;BME280;51709;54.912;8.316;2023-02-21T19:02:19;101568.38;;;8.17;72.14
65131;BME280;51709;54.912;8.316;2023-02-21T19:07:44;101561.53;;;8.04;72.57
65131;BME280;51709;54.912;8.316;2023-02-21T19:13:05;101574.31;;;8.13;72.46
65131;BME280;51709;54.912;8.316;2023-02-21T19:18:27;101565.78;;;8.07;72.70
65131;BME280;51709;54.912;8.316;2023-02-21T19:23:51;101564.13;;;8.10;72.61
65131;BME280;51709;54.912;8.316;2023-02-21T19:29:15;101574.31;;;8.09;72.77
65131;BME280;51709;54.912;8.316;2023-02-21T19:34:36;101579.41;;;7.90;73.43
65131;BME280;51709;54.912;8.316;2023-02-21T19:39:56;101584.50;;;7.89;73.51
65131;BME280;51709;54.912;8.316;2023-02-21T19:45:18;101581.09;;;7.85;73.56
65131;BME280;51709;54.912;8.316;2023-02-21T19:50:39;101593.88;;;7.83;73.59
65131;BME280;51709;54.912;8.316;2023-02-21T19:55:59;101593.06;;;7.97;73.00
65131;BME280;51709;54.912;8.316;2023-02-21T20:01:20;101599.00;;;7.90;73.34
65131;BME280;51709;54.912;8.316;2023-02-21T20:06:41;101595.63;;;7.97;73.40
65131;BME280;51709;54.912;8.316;2023-02-21T20:12:02;101587.09;;;8.02;73.27
65131;BME280;51709;54.912;8.316;2023-02-21T20:17:23;101584.56;;;8.02;73.35
65131;BME280;51709;54.912;8.316;2023-02-21T20:22:44;101593.06;;;7.94;73.68
65131;BME280;51709;54.912;8.316;2023-02-21T20:28:04;101590.50;;;8.12;72.81
65131;BME280;51709;54.912;8.316;2023-02-21T20:33:26;101587.94;;;8.08;72.82
65131;BME280;51709;54.912;8.316;2023-02-21T20:38:47;101578.56;;;8.02;72.75
65131;BME280;51709;54.912;8.316;2023-02-21T20:44:08;101590.53;;;8.06;72.70
65131;BME280;51709;54.912;8.316;2023-02-21T20:49:30;101585.38;;;8.00;72.90
65131;BME280;51709;54.912;8.316;2023-02-21T20:54:51;101575.16;;;7.97;73.13
65131;BME280;51709;54.912;8.316;2023-02-21T21:00:13;101580.25;;;7.89;73.68
65131;BME280;51709;54.912;8.316;2023-02-21T21:05:35;101587.91;;;7.86;73.84
65131;BME280;51709;54.912;8.316;2023-02-21T21:10:55;101587.91;;;7.91;74.02
65131;BME280;51709;54.912;8.316;2023-02-21T21:16:16;101581.13;;;7.97;73.92
65131;BME280;51709;54.912;8.316;2023-02-21T21:21:44;101576.03;;;8.04;74.06
65131;BME280;51709;54.912;8.316;2023-02-21T21:27:21;101576.88;;;8.09;74.18
65131;BME280;51709;54.912;8.316;2023-02-21T21:33:18;101570.94;;;8.16;74.19
65131;BME280;51709;54.912;8.316;2023-02-21T21:38:41;101579.44;;;8.30;73.91
65131;BME280;51709;54.912;8.316;2023-02-21T21:44:06;101582.00;;;8.38;73.89
65131;BME280;51709;54.912;8.316;2023-02-21T21:49:30;101579.44;;;8.43;73.81
65131;BME280;51709;54.912;8.316;2023-02-21T21:54:51;101576.88;;;8.43;74.08
65131;BME280;51709;54.912;8.316;2023-02-21T22:00:14;101564.13;;;8.44;74.34
65131;BME280;51709;54.912;8.316;2023-02-21T22:05:41;101567.50;;;8.42;74.35
65131;BME280;51709;54.912;8.316;2023-02-21T22:11:03;101559.00;;;8.58;73.98
65131;BME280;51709;54.912;8.316;2023-02-21T22:16:36;101557.28;;;8.43;74.86
65131;BME280;51709;54.912;8.316;2023-02-21T22:21:57;101548.78;;;8.54;74.89
65131;BME280;51709;54.912;8.316;2023-02-21T22:27:21;101557.28;;;8.74;74.17
65131;BME280;51709;54.912;8.316;2023-02-21T22:32:45;101544.50;;;8.73;74.17
65131;BME280;51709;54.912;8.316;2023-02-21T22:38:06;101553.91;;;8.58;74.42
65131;BME280;51709;54.912;8.316;2023-02-21T22:43:27;101541.06;;;8.43;74.66
65131;BME280;51709;54.912;8.316;2023-02-21T22:48:48;101543.66;;;8.44;74.82
65131;BME280;51709;54.912;8.316;2023-02-21T22:54:10;101534.25;;;8.42;74.59
65131;BME280;51709;54.912;8.316;2023-02-21T22:59:34;101534.28;;;8.39;74.74
65131;BME280;51709;54.912;8.316;2023-02-21T23:04:55;101530.88;;;8.49;74.52
65131;BME280;51709;54.912;8.316;2023-02-21T23:10:20;101530.84;;;8.43;74.56
65131;BME280;51709;54.912;8.316;2023-02-21T23:15:44;101534.25;;;8.45;74.66
65131;BME280;51709;54.912;8.316;2023-02-21T23:21:07;101537.69;;;8.47;74.52
65131;BME280;51709;54.912;8.316;2023-02-21T23:26:29;101535.97;;;8.41;74.58
65131;BME280;51709;54.912;8.316;2023-02-21T23:31:51;101536.00;;;8.23;75.11
65131;BME280;51709;54.912;8.316;2023-02-21T23:37:13;101532.56;;;8.13;75.39
65131;BME280;51709;54.912;8.316;2023-02-21T23:42:35;101527.47;;;8.17;75.34
65131;BME280;51709;54.912;8.316;2023-02-21T23:47:55;101530.88;;;8.23;75.16
65131;BME280;51709;54.912;8.316;2023-02-21T23:53:18;101512.97;;;8.26;75.09
65131;BME280;51709;54.912;8.316;2023-02-21T23:58:43;101518.91;;;8.29;74.94
